Time;durP1;ratioP1;P1;durP2;ratioP2;P2;SDS_P1;SDS_P2;PMS_P1;PMS_P2;Temp;Humidity;BMP_temperature;BMP_pressure;BME280_temperature;BME280_humidity;BME280_pressure;Samples;Min_cycle;Max_cycle;Signal;HPM_P1;HPM_P2
2024/03/24 00:00:11;;;;;;;4.30;2.00;;;;;;;;;;687645;28;1403;-81
2024/03/24 00:00:31;;;;;;;4.22;1.70;;;;;;;;;;686186;28;1574;-82
2024/03/24 00:01:00;;;;;;;3.85;1.90;;;;;;;;;;688356;28;1134;-82
2024/03/24 00:01:21;;;;;;;3.40;1.80;;;;;;;;;;691311;28;917;-81
2024/03/24 00:01:41;;;;;;;4.30;2.00;;;;;;;;;;687431;28;4334;-82
2024/03/24 00:02:04;;;;;;;4.45;2.03;;;;;;;;;;684781;28;2258;-81
2024/03/24 00:02:25;;;;;;;4.68;1.85;;;;;;;;;;685700;28;1218;-81
2024/03/24 00:02:45;;;;;;;4.97;1.90;;;;;;;;;;686402;28;1316;-81
2024/03/24 00:03:07;;;;;;;4.00;1.67;;;;;;;;;;686806;28;1600;-82
2024/03/24 00:03:35;;;;;;;3.70;1.80;;;;;;;;;;690506;28;1458;-81
2024/03/24 00:03:59;;;;;;;5.82;2.20;;;;;;;;;;686899;28;1439;-82
2024/03/24 00:04:20;;;;;;;4.25;1.98;;;;;;;;;;689376;28;1203;-82
2024/03/24 00:04:40;;;;;;;4.30;1.90;;;;;;;;;;687144;28;4262;-81
2024/03/24 00:05:01;;;;;;;5.00;2.00;;;;;;;;;;685855;28;944;-82
2024/03/24 00:05:24;;;;;;;5.70;2.03;;;;;;;;;;687034;28;1391;-82
2024/03/24 00:05:47;;;;;;;3.92;2.00;;;;;;;;;;686323;28;1388;-81
2024/03/24 00:06:10;;;;;;;3.80;1.77;;;;;;;;;;689021;28;1242;-81
2024/03/24 00:06:31;;;;;;;4.30;1.92;;;;;;;;;;690481;28;1267;-83
2024/03/24 00:06:51;;;;;;;4.05;1.88;;;;;;;;;;688307;28;1367;-81
2024/03/24 00:07:11;;;;;;;5.23;2.13;;;;;;;;;;690694;28;1204;-82
2024/03/24 00:07:35;;;;;;;3.83;2.10;;;;;;;;;;689053;28;4298;-83
2024/03/24 00:07:55;;;;;;;3.95;1.83;;;;;;;;;;685743;28;1362;-81
2024/03/24 00:08:15;;;;;;;3.47;1.80;;;;;;;;;;685943;28;1215;-81
2024/03/24 00:08:36;;;;;;;3.17;1.73;;;;;;;;;;685756;28;878;-82
2024/03/24 00:08:56;;;;;;;4.30;2.10;;;;;;;;;;686409;28;1201;-81
2024/03/24 00:09:24;;;;;;;4.03;2.05;;;;;;;;;;685325;28;882;-82
2024/03/24 00:09:49;;;;;;;4.13;2.00;;;;;;;;;;687595;28;1383;-81
2024/03/24 00:10:13;;;;;;;4.75;2.00;;;;;;;;;;687324;28;1050;-82
2024/03/24 00:10:35;;;;;;;4.75;2.00;;;;;;;;;;689181;28;4532;-82
2024/03/24 00:10:57;;;;;;;4.37;1.90;;;;;;;;;;686565;28;1173;-82
2024/03/24 00:11:22;;;;;;;3.63;1.77;;;;;;;;;;687124;28;1352;-81
2024/03/24 00:11:46;;;;;;;3.95;1.80;;;;;;;;;;689170;28;1239;-81
2024/03/24 00:12:06;;;;;;;4.50;1.83;;;;;;;;;;691675;28;1287;-82
2024/03/24 00:12:27;;;;;;;4.07;2.00;;;;;;;;;;691870;28;1209;-83
2024/03/24 00:12:47;;;;;;;3.78;1.90;;;;;;;;;;688523;28;1285;-82
2024/03/24 00:13:08;;;;;;;4.40;1.90;;;;;;;;;;687534;28;1205;-82
2024/03/24 00:13:28;;;;;;;4.73;2.10;;;;;;;;;;687830;28;4572;-82
2024/03/24 00:13:48;;;;;;;3.33;1.87;;;;;;;;;;688406;28;1292;-82
2024/03/24 00:14:11;;;;;;;4.00;1.90;;;;;;;;;;688206;28;1306;-81
2024/03/24 00:14:31;;;;;;;3.75;1.70;;;;;;;;;;687603;28;1089;-81
2024/03/24 00:14:54;;;;;;;4.43;2.00;;;;;;;;;;684969;28;1610;-82
2024/03/24 00:15:14;;;;;;;5.05;2.03;;;;;;;;;;683272;29;952;-83
2024/03/24 00:15:35;;;;;;;3.63;2.00;;;;;;;;;;685627;28;1914;-82
2024/03/24 00:15:55;;;;;;;4.05;1.88;;;;;;;;;;687813;28;1025;-81
2024/03/24 00:16:15;;;;;;;5.27;2.07;;;;;;;;;;687984;28;1481;-82
2024/03/24 00:16:39;;;;;;;4.20;1.80;;;;;;;;;;688070;28;4302;-82
2024/03/24 00:16:59;;;;;;;5.28;1.90;;;;;;;;;;689190;28;1410;-82
2024/03/24 00:17:21;;;;;;;4.85;1.92;;;;;;;;;;690983;28;1523;-81
2024/03/24 00:17:44;;;;;;;4.40;2.17;;;;;;;;;;692246;28;1416;-80
2024/03/24 00:18:04;;;;;;;5.20;2.10;;;;;;;;;;687759;28;1287;-81
2024/03/24 00:18:24;;;;;;;6.13;2.03;;;;;;;;;;685324;28;898;-81
2024/03/24 00:18:46;;;;;;;5.55;2.00;;;;;;;;;;684745;28;941;-83
2024/03/24 00:19:06;;;;;;;3.65;1.90;;;;;;;;;;684733;28;972;-82
2024/03/24 00:19:26;;;;;;;4.07;1.83;;;;;;;;;;686362;28;1383;-82
2024/03/24 00:19:47;;;;;;;5.03;1.90;;;;;;;;;;688835;28;4256;-82
2024/03/24 00:20:07;;;;;;;5.07;2.00;;;;;;;;;;691396;28;1068;-82
2024/03/24 00:20:28;;;;;;;4.30;1.98;;;;;;;;;;693023;28;1156;-82
2024/03/24 00:20:48;;;;;;;3.80;1.90;;;;;;;;;;692340;28;1175;-81
2024/03/24 00:21:08;;;;;;;3.53;1.88;;;;;;;;;;690191;28;1579;-81
2024/03/24 00:21:30;;;;;;;3.67;1.90;;;;;;;;;;691358;28;975;-82
2024/03/24 00:21:50;;;;;;;4.57;2.10;;;;;;;;;;689883;28;1192;-82
2024/03/24 00:22:12;;;;;;;4.65;2.10;;;;;;;;;;687208;28;1342;-82
2024/03/24 00:22:34;;;;;;;4.65;2.30;;;;;;;;;;682160;28;4275;-81
2024/03/24 00:22:54;;;;;;;4.10;2.20;;;;;;;;;;683197;28;1455;-82
2024/03/24 00:23:15;;;;;;;4.60;2.13;;;;;;;;;;688498;28;1273;-81
2024/03/24 00:23:37;;;;;;;4.18;2.00;;;;;;;;;;684993;28;1434;-82
2024/03/24 00:23:58;;;;;;;4.32;2.10;;;;;;;;;;684551;28;1354;-81
2024/03/24 00:24:19;;;;;;;5.78;2.40;;;;;;;;;;682619;29;1429;-82
2024/03/24 00:24:39;;;;;;;4.60;2.25;;;;;;;;;;682619;28;1093;-82
2024/03/24 00:25:00;;;;;;;5.22;2.03;;;;;;;;;;682198;28;1253;-82
2024/03/24 00:25:24;;;;;;;5.30;2.30;;;;;;;;;;685940;28;1236;-81
2024/03/24 00:25:44;;;;;;;5.30;2.22;;;;;;;;;;684106;28;4424;-82
2024/03/24 00:26:04;;;;;;;4.17;2.20;;;;;;;;;;687396;28;1098;-80
2024/03/24 00:26:27;;;;;;;5.32;2.35;;;;;;;;;;685435;28;1471;-82
2024/03/24 00:26:48;;;;;;;5.75;2.33;;;;;;;;;;687731;28;1662;-82
2024/03/24 00:27:08;;;;;;;5.60;2.25;;;;;;;;;;687392;28;1323;-81
2024/03/24 00:27:29;;;;;;;5.03;2.37;;;;;;;;;;688119;28;1354;-82
2024/03/24 00:27:49;;;;;;;5.00;2.33;;;;;;;;;;687541;28;837;-81
2024/03/24 00:28:09;;;;;;;4.50;2.37;;;;;;;;;;689312;28;1078;-82
2024/03/24 00:28:30;;;;;;;4.63;2.40;;;;;;;;;;687732;28;4533;-81
2024/03/24 00:28:50;;;;;;;4.65;2.40;;;;;;;;;;684985;28;1161;-81
2024/03/24 00:29:10;;;;;;;4.80;2.30;;;;;;;;;;681986;28;1165;-82
2024/03/24 00:29:31;;;;;;;4.47;2.30;;;;;;;;;;685982;28;845;-81
2024/03/24 00:29:51;;;;;;;5.13;2.55;;;;;;;;;;683129;28;1188;-81
2024/03/24 00:30:12;;;;;;;4.73;2.43;;;;;;;;;;682331;28;1043;-81
2024/03/24 00:30:32;;;;;;;4.22;2.10;;;;;;;;;;683140;28;1024;-82
2024/03/24 00:30:53;;;;;;;4.10;2.10;;;;;;;;;;683951;28;1291;-81
2024/03/24 00:31:13;;;;;;;4.67;2.30;;;;;;;;;;683958;28;1255;-82
2024/03/24 00:31:34;;;;;;;4.60;2.10;;;;;;;;;;684341;28;4352;-81
2024/03/24 00:31:54;;;;;;;5.03;2.40;;;;;;;;;;682613;28;1126;-82
2024/03/24 00:32:15;;;;;;;4.28;2.30;;;;;;;;;;682445;28;1729;-82
2024/03/24 00:32:36;;;;;;;3.80;2.27;;;;;;;;;;685800;28;1047;-82
2024/03/24 00:32:56;;;;;;;5.20;2.30;;;;;;;;;;685167;28;1030;-81
2024/03/24 00:33:16;;;;;;;6.22;2.33;;;;;;;;;;688602;28;1565;-81
2024/03/24 00:33:37;;;;;;;5.33;2.33;;;;;;;;;;692754;28;1309;-82
2024/03/24 00:33:57;;;;;;;5.17;2.33;;;;;;;;;;692933;28;1338;-83
2024/03/24 00:34:17;;;;;;;5.10;2.50;;;;;;;;;;695821;28;947;-82
2024/03/24 00:34:41;;;;;;;5.57;2.40;;;;;;;;;;694919;28;4263;-80
2024/03/24 00:35:01;;;;;;;4.88;2.20;;;;;;;;;;691961;28;1389;-82
2024/03/24 00:35:21;;;;;;;4.40;2.37;;;;;;;;;;694629;28;1992;-83
2024/03/24 00:35:45;;;;;;;4.60;2.25;;;;;;;;;;688775;28;1376;-83
2024/03/24 00:36:07;;;;;;;4.85;2.50;;;;;;;;;;690104;28;1344;-82
2024/03/24 00:36:27;;;;;;;5.03;2.40;;;;;;;;;;689675;28;995;-81
2024/03/24 00:36:48;;;;;;;6.15;2.63;;;;;;;;;;691379;28;1272;-82
2024/03/24 00:37:09;;;;;;;6.25;2.60;;;;;;;;;;689879;28;1177;-81
2024/03/24 00:37:29;;;;;;;5.00;2.50;;;;;;;;;;693418;28;4291;-81
2024/03/24 00:37:52;;;;;;;5.13;2.50;;;;;;;;;;693061;28;1075;-82
2024/03/24 00:38:13;;;;;;;4.18;2.40;;;;;;;;;;691140;28;1341;-81
2024/03/24 00:38:34;;;;;;;4.88;2.40;;;;;;;;;;688246;28;1237;-81
2024/03/24 00:38:55;;;;;;;5.60;2.50;;;;;;;;;;686333;28;1179;-81
2024/03/24 00:39:15;;;;;;;5.13;2.60;;;;;;;;;;687468;28;1144;-81
2024/03/24 00:39:35;;;;;;;4.23;2.50;;;;;;;;;;685796;28;1206;-82
2024/03/24 00:39:56;;;;;;;5.23;2.57;;;;;;;;;;681997;28;1189;-81
2024/03/24 00:40:16;;;;;;;5.80;2.63;;;;;;;;;;682777;29;1335;-81
2024/03/24 00:40:37;;;;;;;5.00;2.40;;;;;;;;;;685878;28;4304;-81
2024/03/24 00:40:57;;;;;;;5.30;2.58;;;;;;;;;;690030;28;1208;-82
2024/03/24 00:41:17;;;;;;;5.20;2.50;;;;;;;;;;690789;28;765;-82
2024/03/24 00:41:40;;;;;;;4.70;2.30;;;;;;;;;;690282;28;896;-82
2024/03/24 00:42:00;;;;;;;4.20;2.45;;;;;;;;;;686520;28;1497;-81
2024/03/24 00:42:23;;;;;;;5.43;2.70;;;;;;;;;;685742;28;1158;-82
2024/03/24 00:42:43;;;;;;;5.60;2.40;;;;;;;;;;684067;28;988;-84
2024/03/24 00:43:04;;;;;;;5.03;2.30;;;;;;;;;;687243;28;1243;-82
2024/03/24 00:43:24;;;;;;;4.80;2.43;;;;;;;;;;687405;28;1204;-82
2024/03/24 00:43:44;;;;;;;4.78;2.38;;;;;;;;;;686062;28;4329;-82
2024/03/24 00:44:05;;;;;;;5.23;2.50;;;;;;;;;;687599;28;1113;-83
2024/03/24 00:44:25;;;;;;;5.80;2.43;;;;;;;;;;688358;28;1172;-81
2024/03/24 00:44:45;;;;;;;5.43;2.55;;;;;;;;;;685687;28;829;-81
2024/03/24 00:45:07;;;;;;;4.57;2.40;;;;;;;;;;687252;28;1101;-82
2024/03/24 00:45:28;;;;;;;4.43;2.38;;;;;;;;;;685904;28;1334;-82
2024/03/24 00:45:48;;;;;;;5.68;2.58;;;;;;;;;;688671;28;1098;-83
2024/03/24 00:46:11;;;;;;;6.40;2.70;;;;;;;;;;690144;28;1211;-82
2024/03/24 00:46:31;;;;;;;6.55;2.90;;;;;;;;;;688562;28;4516;-82
2024/03/24 00:46:52;;;;;;;6.40;2.90;;;;;;;;;;690875;28;1164;-82
2024/03/24 00:47:12;;;;;;;6.00;2.37;;;;;;;;;;687595;28;1412;-81
2024/03/24 00:47:32;;;;;;;7.23;2.50;;;;;;;;;;686127;28;1181;-81
2024/03/24 00:47:55;;;;;;;5.40;2.30;;;;;;;;;;687203;28;1118;-82
2024/03/24 00:48:15;;;;;;;5.60;2.45;;;;;;;;;;688686;28;1384;-82
2024/03/24 00:48:35;;;;;;;4.67;2.57;;;;;;;;;;688447;28;1202;-82
2024/03/24 00:48:55;;;;;;;5.90;2.65;;;;;;;;;;684709;28;1141;-81
2024/03/24 00:49:16;;;;;;;6.33;2.43;;;;;;;;;;685903;28;833;-82
2024/03/24 00:49:36;;;;;;;5.87;2.50;;;;;;;;;;689846;28;4447;-81
2024/03/24 00:49:56;;;;;;;6.18;2.90;;;;;;;;;;688376;28;941;-81
2024/03/24 00:50:17;;;;;;;6.17;2.60;;;;;;;;;;690738;28;963;-82
2024/03/24 00:50:37;;;;;;;5.53;2.53;;;;;;;;;;686900;28;1176;-81
2024/03/24 00:50:58;;;;;;;5.83;2.70;;;;;;;;;;682957;28;1129;-81
2024/03/24 00:51:18;;;;;;;4.97;2.33;;;;;;;;;;685684;28;1299;-81
2024/03/24 00:51:39;;;;;;;4.90;2.50;;;;;;;;;;684884;28;1148;-82
2024/03/24 00:52:00;;;;;;;5.43;2.50;;;;;;;;;;687300;28;1460;-81
2024/03/24 00:52:21;;;;;;;5.00;2.50;;;;;;;;;;687977;28;1312;-82
2024/03/24 00:52:41;;;;;;;5.25;3.00;;;;;;;;;;687775;28;4282;-81
2024/03/24 00:53:04;;;;;;;6.50;2.90;;;;;;;;;;684593;28;1200;-81
2024/03/24 00:53:24;;;;;;;6.20;2.90;;;;;;;;;;685975;28;1224;-82
2024/03/24 00:53:44;;;;;;;5.63;2.77;;;;;;;;;;685504;28;1136;-82
2024/03/24 00:54:07;;;;;;;6.13;2.60;;;;;;;;;;684834;28;1064;-82
2024/03/24 00:54:28;;;;;;;6.60;2.80;;;;;;;;;;688356;28;1019;-81
2024/03/24 00:54:48;;;;;;;5.63;2.60;;;;;;;;;;691020;28;1449;-82
2024/03/24 00:55:11;;;;;;;5.05;2.65;;;;;;;;;;689976;28;1421;-82
2024/03/24 00:55:32;;;;;;;5.55;2.90;;;;;;;;;;690031;28;4353;-82
2024/03/24 00:55:52;;;;;;;6.00;2.80;;;;;;;;;;690872;28;790;-82
2024/03/24 00:56:12;;;;;;;6.10;2.90;;;;;;;;;;687338;28;1297;-82
2024/03/24 00:56:33;;;;;;;5.30;2.70;;;;;;;;;;688789;28;1263;-83
2024/03/24 00:56:53;;;;;;;6.53;2.80;;;;;;;;;;685760;28;1303;-82
2024/03/24 00:57:14;;;;;;;5.60;2.80;;;;;;;;;;685584;28;1025;-82
2024/03/24 00:57:35;;;;;;;4.53;2.70;;;;;;;;;;686106;28;790;-82
2024/03/24 00:57:55;;;;;;;5.07;2.47;;;;;;;;;;687118;28;1315;-83
2024/03/24 00:58:15;;;;;;;6.00;2.87;;;;;;;;;;688099;28;3871;-82
2024/03/24 00:58:37;;;;;;;6.47;3.07;;;;;;;;;;687175;28;4485;-82
2024/03/24 00:59:00;;;;;;;6.32;2.90;;;;;;;;;;684717;28;1626;-82
2024/03/24 00:59:20;;;;;;;7.50;3.20;;;;;;;;;;688038;28;1281;-82
2024/03/24 00:59:41;;;;;;;5.38;2.92;;;;;;;;;;688378;28;1288;-82
2024/03/24 01:00:02;;;;;;;5.90;2.80;;;;;;;;;;688377;28;1169;-81
2024/03/24 01:00:23;;;;;;;5.20;2.60;;;;;;;;;;686818;28;1298;-81
2024/03/24 01:00:45;;;;;;;5.68;3.00;;;;;;;;;;687897;28;1043;-82
2024/03/24 01:01:09;;;;;;;6.35;3.10;;;;;;;;;;689644;28;1648;-82
2024/03/24 01:01:29;;;;;;;5.25;2.70;;;;;;;;;;691940;28;4336;-82
2024/03/24 01:01:49;;;;;;;5.10;2.72;;;;;;;;;;693899;28;1231;-82
2024/03/24 01:02:10;;;;;;;6.20;3.07;;;;;;;;;;692526;28;1148;-82
2024/03/24 01:03:03;;;;;;;;;;;;;;;;;;;;;
2024/03/24 01:03:26;;;;;;;7.38;3.13;;;;;;;;;;691368;28;1259;-81
2024/03/24 01:03:59;;;;;;;6.50;3.30;;;;;;;;;;686711;28;1250;-82
2024/03/24 01:04:23;;;;;;;5.68;2.97;;;;;;;;;;689297;28;1411;-82
2024/03/24 01:04:46;;;;;;;7.05;3.33;;;;;;;;;;680194;28;4302;-83
2024/03/24 01:05:07;;;;;;;7.53;2.97;;;;;;;;;;685857;28;1308;-82
2024/03/24 01:05:47;;;;;;;5.70;3.00;;;;;;;;;;687953;28;4819;-81
2024/03/24 01:06:10;;;;;;;6.20;3.15;;;;;;;;;;685936;28;1186;-82
2024/03/24 01:06:43;;;;;;;6.65;3.05;;;;;;;;;;687629;28;1266;-82
2024/03/24 01:07:07;;;;;;;7.50;3.10;;;;;;;;;;690233;28;935;-82
2024/03/24 01:07:30;;;;;;;7.55;3.25;;;;;;;;;;687342;28;4277;-81
2024/03/24 01:07:54;;;;;;;6.20;3.38;;;;;;;;;;689551;28;1504;-82
2024/03/24 01:08:19;;;;;;;5.80;2.90;;;;;;;;;;690735;28;1275;-83
2024/03/24 01:08:43;;;;;;;5.38;2.88;;;;;;;;;;690623;28;912;-82
2024/03/24 01:09:24;;;;;;;6.03;3.05;;;;;;;;;;689268;28;1125;-82
2024/03/24 01:09:44;;;;;;;7.03;3.40;;;;;;;;;;689809;28;1100;-81
2024/03/24 01:10:07;;;;;;;5.75;2.85;;;;;;;;;;684963;28;1305;-82
2024/03/24 01:10:27;;;;;;;4.80;2.70;;;;;;;;;;686610;28;4337;-82
2024/03/24 01:10:48;;;;;;;5.65;2.83;;;;;;;;;;683495;28;1384;-82
2024/03/24 01:11:09;;;;;;;6.10;2.90;;;;;;;;;;680303;28;1200;-82
2024/03/24 01:11:31;;;;;;;6.03;2.83;;;;;;;;;;682155;28;1242;-83
2024/03/24 01:11:59;;;;;;;6.28;2.80;;;;;;;;;;685170;28;985;-82
2024/03/24 01:12:23;;;;;;;6.60;3.03;;;;;;;;;;690325;28;1346;-83
2024/03/24 01:12:50;;;;;;;5.75;3.30;;;;;;;;;;687680;28;1103;-81
2024/03/24 01:13:11;;;;;;;6.53;3.15;;;;;;;;;;684090;28;1219;-82
2024/03/24 01:13:31;;;;;;;5.38;3.00;;;;;;;;;;684491;28;4366;-82
2024/03/24 01:14:02;;;;;;;5.35;2.90;;;;;;;;;;684942;28;1117;-82
2024/03/24 01:14:23;;;;;;;6.30;3.05;;;;;;;;;;683732;28;1295;-82
2024/03/24 01:14:44;;;;;;;7.45;3.28;;;;;;;;;;683055;28;1177;-81
2024/03/24 01:15:09;;;;;;;6.70;3.30;;;;;;;;;;683075;28;927;-82
2024/03/24 01:15:32;;;;;;;6.25;3.67;;;;;;;;;;685071;28;1887;-82
2024/03/24 01:15:55;;;;;;;6.18;3.40;;;;;;;;;;687703;28;1470;-82
2024/03/24 01:16:27;;;;;;;6.70;3.10;;;;;;;;;;687555;28;1363;-82
2024/03/24 01:16:50;;;;;;;6.40;3.40;;;;;;;;;;686154;28;5004;-82
2024/03/24 01:17:13;;;;;;;5.55;3.05;;;;;;;;;;685243;28;1094;-82
2024/03/24 01:17:36;;;;;;;4.75;2.80;;;;;;;;;;685044;28;1261;-83
2024/03/24 01:17:57;;;;;;;5.32;2.88;;;;;;;;;;687791;28;1330;-81
2024/03/24 01:18:22;;;;;;;6.18;3.10;;;;;;;;;;689660;28;1445;-82
2024/03/24 01:18:54;;;;;;;6.25;3.00;;;;;;;;;;690721;28;904;-81
2024/03/24 01:19:20;;;;;;;6.72;3.00;;;;;;;;;;688538;28;915;-82
2024/03/24 01:19:40;;;;;;;6.53;3.17;;;;;;;;;;687937;28;4437;-82
2024/03/24 01:20:04;;;;;;;7.35;3.22;;;;;;;;;;689423;28;884;-82
2024/03/24 01:20:29;;;;;;;8.25;3.33;;;;;;;;;;689472;28;952;-82
2024/03/24 01:20:51;;;;;;;6.90;3.30;;;;;;;;;;691935;28;883;-82
2024/03/24 01:21:17;;;;;;;6.30;3.15;;;;;;;;;;689328;28;1231;-83
2024/03/24 01:21:52;;;;;;;6.20;3.03;;;;;;;;;;693125;28;857;-82
2024/03/24 01:22:21;;;;;;;6.38;3.40;;;;;;;;;;689590;28;1268;-82
2024/03/24 01:22:45;;;;;;;6.20;2.90;;;;;;;;;;686667;28;4342;-81
2024/03/24 01:23:08;;;;;;;8.05;3.13;;;;;;;;;;688914;28;1431;-81
2024/03/24 01:23:31;;;;;;;6.20;3.10;;;;;;;;;;690607;28;1283;-82
2024/03/24 01:23:51;;;;;;;5.85;3.08;;;;;;;;;;688142;28;1393;-84
2024/03/24 01:24:15;;;;;;;5.65;3.10;;;;;;;;;;686655;28;1297;-83
2024/03/24 01:24:35;;;;;;;5.90;2.90;;;;;;;;;;689827;28;979;-82
2024/03/24 01:24:56;;;;;;;5.28;2.83;;;;;;;;;;688453;28;1460;-82
2024/03/24 01:25:19;;;;;;;6.43;3.05;;;;;;;;;;690496;28;789;-82
2024/03/24 01:25:45;;;;;;;6.60;3.30;;;;;;;;;;676912;28;4294;-82
2024/03/24 01:26:19;;;;;;;6.00;2.83;;;;;;;;;;682742;28;1570;-81
2024/03/24 01:26:45;;;;;;;5.35;2.97;;;;;;;;;;685713;28;1344;-82
2024/03/24 01:27:10;;;;;;;6.43;3.20;;;;;;;;;;686269;28;1282;-82
2024/03/24 01:27:31;;;;;;;6.85;3.05;;;;;;;;;;691989;28;1321;-82
2024/03/24 01:27:51;;;;;;;7.30;3.30;;;;;;;;;;688034;28;1209;-82
2024/03/24 01:28:12;;;;;;;6.43;3.00;;;;;;;;;;689752;28;1555;-82
2024/03/24 01:28:32;;;;;;;6.00;3.20;;;;;;;;;;679327;28;4302;-82
2024/03/24 01:29:13;;;;;;;6.47;3.00;;;;;;;;;;684798;28;1224;-82
2024/03/24 01:29:35;;;;;;;6.55;3.28;;;;;;;;;;687976;28;1490;-82
2024/03/24 01:30:05;;;;;;;6.40;3.10;;;;;;;;;;687954;28;1086;-82
2024/03/24 01:30:29;;;;;;;5.97;3.25;;;;;;;;;;690949;28;1107;-81
2024/03/24 01:30:58;;;;;;;6.55;3.22;;;;;;;;;;689562;28;1264;-82
2024/03/24 01:31:26;;;;;;;6.38;3.30;;;;;;;;;;686692;28;1287;-81
2024/03/24 01:31:49;;;;;;;5.97;3.20;;;;;;;;;;687252;28;4685;-82
2024/03/24 01:32:15;;;;;;;7.30;3.33;;;;;;;;;;688906;28;1176;-82
2024/03/24 01:32:45;;;;;;;6.78;3.13;;;;;;;;;;688928;28;875;-81
2024/03/24 01:33:06;;;;;;;7.07;3.40;;;;;;;;;;687953;28;1039;-82
2024/03/24 01:33:32;;;;;;;5.45;3.30;;;;;;;;;;687016;28;1475;-81
2024/03/24 01:33:54;;;;;;;6.57;3.22;;;;;;;;;;685008;28;1283;-82
2024/03/24 01:34:15;;;;;;;7.65;3.30;;;;;;;;;;686732;28;1177;-81
2024/03/24 01:34:39;;;;;;;7.05;3.20;;;;;;;;;;679547;28;4583;-81
2024/03/24 01:34:59;;;;;;;6.43;2.92;;;;;;;;;;687584;28;1192;-81
2024/03/24 01:35:20;;;;;;;6.13;3.17;;;;;;;;;;684062;28;1963;-82
2024/03/24 01:35:49;;;;;;;6.63;3.57;;;;;;;;;;682396;29;1237;-82
2024/03/24 01:36:10;;;;;;;5.68;3.10;;;;;;;;;;683591;28;980;-80
2024/03/24 01:36:31;;;;;;;6.68;3.38;;;;;;;;;;687440;28;1366;-81
2024/03/24 01:36:58;;;;;;;6.05;3.20;;;;;;;;;;686953;28;974;-82
2024/03/24 01:37:21;;;;;;;7.17;3.10;;;;;;;;;;690230;28;1366;-82
2024/03/24 01:37:47;;;;;;;6.60;3.08;;;;;;;;;;682141;28;4796;-82
2024/03/24 01:38:18;;;;;;;7.93;3.30;;;;;;;;;;684408;28;1244;-82
2024/03/24 01:38:41;;;;;;;6.15;3.20;;;;;;;;;;683339;29;887;-82
2024/03/24 01:39:08;;;;;;;6.35;3.10;;;;;;;;;;681734;28;1164;-82
2024/03/24 01:39:32;;;;;;;5.20;2.97;;;;;;;;;;686874;28;1031;-82
2024/03/24 01:40:02;;;;;;;5.68;2.80;;;;;;;;;;686418;28;1455;-82
2024/03/24 01:40:26;;;;;;;5.20;3.15;;;;;;;;;;689681;28;1235;-81
2024/03/24 01:40:47;;;;;;;6.45;3.10;;;;;;;;;;685439;28;4290;-82
2024/03/24 01:41:11;;;;;;;5.57;3.13;;;;;;;;;;685672;28;1368;-82
2024/03/24 01:41:43;;;;;;;6.10;3.17;;;;;;;;;;693347;28;1257;-82
2024/03/24 01:42:06;;;;;;;7.18;3.55;;;;;;;;;;689250;28;1541;-82
2024/03/24 01:42:26;;;;;;;7.15;3.60;;;;;;;;;;689456;28;1225;-82
2024/03/24 01:42:50;;;;;;;6.57;3.50;;;;;;;;;;688641;28;966;-82
2024/03/24 01:43:16;;;;;;;6.32;3.20;;;;;;;;;;686936;28;1311;-82
2024/03/24 01:43:39;;;;;;;6.03;3.50;;;;;;;;;;689163;28;4439;-82
2024/03/24 01:44:03;;;;;;;7.68;3.20;;;;;;;;;;685441;28;1384;-82
2024/03/24 01:44:23;;;;;;;7.28;3.50;;;;;;;;;;685105;28;1225;-82
2024/03/24 01:44:44;;;;;;;5.73;3.33;;;;;;;;;;685621;28;900;-81
2024/03/24 01:45:08;;;;;;;6.35;3.30;;;;;;;;;;687335;28;1197;-82
2024/03/24 01:45:28;;;;;;;6.57;3.43;;;;;;;;;;688537;28;1126;-82
2024/03/24 01:45:52;;;;;;;6.60;3.30;;;;;;;;;;688073;28;1200;-82
2024/03/24 01:46:15;;;;;;;6.25;3.28;;;;;;;;;;684547;28;1256;-82
2024/03/24 01:46:43;;;;;;;6.57;3.20;;;;;;;;;;685050;28;4416;-81
2024/03/24 01:47:03;;;;;;;7.30;3.17;;;;;;;;;;680935;28;1303;-82
2024/03/24 01:47:26;;;;;;;6.28;3.15;;;;;;;;;;683410;28;882;-81
2024/03/24 01:47:47;;;;;;;5.68;3.00;;;;;;;;;;682972;28;1179;-81
2024/03/24 01:48:08;;;;;;;6.50;3.10;;;;;;;;;;686264;28;1263;-82
2024/03/24 01:48:28;;;;;;;5.55;3.05;;;;;;;;;;689039;28;1374;-82
2024/03/24 01:48:51;;;;;;;6.07;3.40;;;;;;;;;;692237;28;865;-81
2024/03/24 01:49:12;;;;;;;7.22;3.33;;;;;;;;;;692141;28;1371;-82
2024/03/24 01:49:33;;;;;;;8.05;3.33;;;;;;;;;;681641;28;4315;-82
2024/03/24 01:49:55;;;;;;;6.75;3.33;;;;;;;;;;691050;28;881;-81
2024/03/24 01:50:21;;;;;;;5.90;3.22;;;;;;;;;;687760;28;1163;-82
2024/03/24 01:50:44;;;;;;;7.18;3.10;;;;;;;;;;688590;28;1035;-82
2024/03/24 01:51:09;;;;;;;6.50;3.10;;;;;;;;;;686732;28;1415;-81
2024/03/24 01:51:33;;;;;;;7.13;3.08;;;;;;;;;;686049;28;1047;-82
2024/03/24 01:52:07;;;;;;;7.47;3.17;;;;;;;;;;690398;28;1358;-81
2024/03/24 01:52:36;;;;;;;6.03;3.10;;;;;;;;;;684949;28;4271;-82
2024/03/24 01:53:10;;;;;;;5.93;3.20;;;;;;;;;;685682;28;998;-82
2024/03/24 01:53:31;;;;;;;6.78;3.22;;;;;;;;;;685066;28;1366;-81
2024/03/24 01:53:57;;;;;;;6.05;3.25;;;;;;;;;;683949;28;1558;-82
2024/03/24 01:54:21;;;;;;;6.80;3.30;;;;;;;;;;686839;28;3261;-81
2024/03/24 01:54:42;;;;;;;7.55;3.22;;;;;;;;;;685666;28;1338;-81
2024/03/24 01:55:05;;;;;;;5.95;3.17;;;;;;;;;;681675;28;1297;-81
2024/03/24 01:55:29;;;;;;;5.20;3.05;;;;;;;;;;682200;29;4581;-82
2024/03/24 01:55:53;;;;;;;5.05;2.90;;;;;;;;;;683711;28;1220;-82
2024/03/24 01:56:15;;;;;;;8.38;3.95;;;;;;;;;;686925;28;1162;-82
2024/03/24 01:56:38;;;;;;;6.35;3.58;;;;;;;;;;686547;28;1291;-82
2024/03/24 01:57:01;;;;;;;6.57;3.22;;;;;;;;;;689996;28;957;-81
2024/03/24 01:57:21;;;;;;;5.93;3.17;;;;;;;;;;689038;28;1469;-82
2024/03/24 01:57:45;;;;;;;6.60;3.10;;;;;;;;;;690390;28;1259;-83
2024/03/24 01:58:07;;;;;;;6.47;3.17;;;;;;;;;;690302;28;1061;-81
2024/03/24 01:58:31;;;;;;;5.50;3.28;;;;;;;;;;683329;28;4283;-82
2024/03/24 01:58:54;;;;;;;7.60;3.10;;;;;;;;;;688992;28;826;-82
2024/03/24 01:59:24;;;;;;;6.13;3.22;;;;;;;;;;686523;28;972;-82
2024/03/24 01:59:45;;;;;;;6.28;3.15;;;;;;;;;;691223;28;1335;-82
2024/03/24 02:00:16;;;;;;;5.27;3.13;;;;;;;;;;687755;28;1259;-82
2024/03/24 02:00:36;;;;;;;5.82;3.10;;;;;;;;;;690850;28;718;-82
2024/03/24 02:01:33;;;;;;;5.47;3.10;;;;;;;;;;690159;28;4448;-70
2024/03/24 02:01:53;;;;;;;7.75;3.38;;;;;;;;;;694348;28;1190;-70
2024/03/24 02:02:14;;;;;;;6.60;3.20;;;;;;;;;;695056;28;1825;-71
2024/03/24 02:02:34;;;;;;;6.25;3.03;;;;;;;;;;694978;28;1352;-72
2024/03/24 02:02:54;;;;;;;6.93;3.47;;;;;;;;;;692026;28;1299;-72
2024/03/24 02:03:16;;;;;;;6.10;3.13;;;;;;;;;;691995;28;1774;-71
2024/03/24 02:03:37;;;;;;;6.25;3.10;;;;;;;;;;692077;28;1383;-68
2024/03/24 02:03:57;;;;;;;5.88;2.80;;;;;;;;;;692021;28;1172;-68
2024/03/24 02:04:17;;;;;;;5.97;3.07;;;;;;;;;;691984;28;1721;-69
2024/03/24 02:04:47;;;;;;;7.57;3.30;;;;;;;;;;692435;28;4485;-69
2024/03/24 02:05:07;;;;;;;6.20;3.20;;;;;;;;;;693760;28;1859;-71
2024/03/24 02:05:28;;;;;;;6.80;3.33;;;;;;;;;;695615;28;1405;-70
2024/03/24 02:05:48;;;;;;;6.77;3.50;;;;;;;;;;695875;28;951;-70
2024/03/24 02:06:08;;;;;;;8.30;3.50;;;;;;;;;;694747;28;1708;-69
2024/03/24 02:06:29;;;;;;;8.40;3.50;;;;;;;;;;698306;28;930;-69
2024/03/24 02:06:49;;;;;;;6.67;3.10;;;;;;;;;;698246;28;772;-69
2024/03/24 02:07:09;;;;;;;6.32;3.05;;;;;;;;;;697270;28;1765;-70
2024/03/24 02:07:29;;;;;;;6.80;3.30;;;;;;;;;;698290;28;4283;-69
2024/03/24 02:07:50;;;;;;;5.50;3.17;;;;;;;;;;698053;28;1173;-70
2024/03/24 02:08:10;;;;;;;7.22;3.28;;;;;;;;;;697219;28;1710;-70
2024/03/24 02:08:31;;;;;;;6.67;3.60;;;;;;;;;;695616;28;1241;-70
2024/03/24 02:08:51;;;;;;;6.68;3.55;;;;;;;;;;692419;28;1309;-69
2024/03/24 02:09:11;;;;;;;5.93;3.30;;;;;;;;;;691923;28;1708;-69
2024/03/24 02:09:32;;;;;;;6.33;3.20;;;;;;;;;;693091;28;1095;-70
2024/03/24 02:09:52;;;;;;;7.13;3.42;;;;;;;;;;693042;28;860;-70
2024/03/24 02:10:12;;;;;;;7.43;3.47;;;;;;;;;;692104;28;1813;-69
2024/03/24 02:10:34;;;;;;;6.80;3.10;;;;;;;;;;695196;28;4511;-69
2024/03/24 02:10:55;;;;;;;5.05;3.13;;;;;;;;;;695518;28;987;-71
2024/03/24 02:11:15;;;;;;;5.50;3.15;;;;;;;;;;694888;28;1509;-71
2024/03/24 02:11:36;;;;;;;5.63;3.13;;;;;;;;;;696015;28;1324;-70
2024/03/24 02:11:56;;;;;;;6.23;3.37;;;;;;;;;;690172;28;1276;-69
2024/03/24 02:12:16;;;;;;;7.13;3.28;;;;;;;;;;689144;28;2275;-71
2024/03/24 02:12:37;;;;;;;6.43;3.40;;;;;;;;;;690449;28;907;-70
2024/03/24 02:12:57;;;;;;;5.70;3.40;;;;;;;;;;689900;28;777;-69
2024/03/24 02:13:17;;;;;;;5.65;3.10;;;;;;;;;;687729;28;1841;-71
2024/03/24 02:13:37;;;;;;;6.00;3.23;;;;;;;;;;692308;28;4332;-70
2024/03/24 02:13:58;;;;;;;7.40;3.57;;;;;;;;;;696037;28;959;-69
2024/03/24 02:14:19;;;;;;;7.85;3.33;;;;;;;;;;695077;28;2057;-72
2024/03/24 02:14:39;;;;;;;6.97;3.40;;;;;;;;;;696215;28;825;-72
2024/03/24 02:14:59;;;;;;;5.20;3.30;;;;;;;;;;695700;28;930;-70
2024/03/24 02:15:19;;;;;;;5.77;3.40;;;;;;;;;;694261;28;1733;-70
2024/03/24 02:15:40;;;;;;;6.35;3.33;;;;;;;;;;696064;28;1981;-71
2024/03/24 02:16:00;;;;;;;5.83;3.10;;;;;;;;;;695798;28;943;-70
2024/03/24 02:16:20;;;;;;;5.47;3.13;;;;;;;;;;693982;28;880;-70
2024/03/24 02:16:41;;;;;;;5.95;3.25;;;;;;;;;;695338;28;4370;-71
2024/03/24 02:17:01;;;;;;;5.70;3.17;;;;;;;;;;691508;28;1912;-71
2024/03/24 02:17:21;;;;;;;5.83;3.30;;;;;;;;;;692968;28;739;-69
2024/03/24 02:17:41;;;;;;;6.32;3.35;;;;;;;;;;695419;28;1972;-69
2024/03/24 02:18:02;;;;;;;7.00;3.57;;;;;;;;;;693595;28;1928;-70
2024/03/24 02:18:22;;;;;;;6.13;3.50;;;;;;;;;;692958;28;1282;-69
2024/03/24 02:18:42;;;;;;;6.57;3.67;;;;;;;;;;696006;28;1013;-71
2024/03/24 02:19:03;;;;;;;7.27;3.80;;;;;;;;;;694449;28;1820;-68
2024/03/24 02:19:24;;;;;;;6.50;3.80;;;;;;;;;;692833;28;954;-69
2024/03/24 02:19:44;;;;;;;7.93;4.00;;;;;;;;;;686916;28;4264;-72